createdAt,value
2023-04-02T00:01:35.964Z,100.00
2023-04-02T00:11:40.541Z,100.00
2023-04-02T00:21:45.403Z,100.00
2023-04-02T00:31:55.827Z,100.00
2023-04-02T00:42:06.652Z,100.00
2023-04-02T00:52:27.125Z,100.00
2023-04-02T01:02:41.091Z,100.00
2023-04-02T01:12:51.965Z,100.00
2023-04-02T01:23:00.684Z,100.00
2023-04-02T01:33:08.724Z,100.00
2023-04-02T01:43:26.864Z,100.00
2023-04-02T01:53:31.239Z,100.00
2023-04-02T02:03:35.655Z,100.00
2023-04-02T02:13:53.911Z,100.00
2023-04-02T02:24:02.064Z,100.00
2023-04-02T02:34:21.908Z,100.00
2023-04-02T02:44:36.198Z,100.00
2023-04-02T02:54:51.600Z,100.00
2023-04-02T03:05:03.154Z,100.00
2023-04-02T03:15:14.112Z,100.00
2023-04-02T03:25:25.810Z,100.00
2023-04-02T03:35:44.540Z,100.00
2023-04-02T03:45:53.593Z,100.00
2023-04-02T03:55:59.258Z,100.00
2023-04-02T04:06:15.901Z,100.00
2023-04-02T04:16:30.490Z,100.00
2023-04-02T04:26:40.425Z,100.00
2023-04-02T04:36:54.701Z,100.00
2023-04-02T04:47:08.695Z,100.00
2023-04-02T04:57:24.575Z,100.00
2023-04-02T05:07:36.803Z,100.00
2023-04-02T05:18:17.845Z,100.00
2023-04-02T05:28:49.115Z,100.00
2023-04-02T05:38:53.056Z,100.00
2023-04-02T05:49:12.358Z,100.00
2023-04-02T05:59:29.873Z,100.00
2023-04-02T06:09:42.424Z,100.00
2023-04-02T06:19:50.752Z,100.00
2023-04-02T06:29:57.726Z,100.00
2023-04-02T06:40:03.781Z,100.00
2023-04-02T06:50:33.819Z,100.00
2023-04-02T07:00:45.076Z,100.00
2023-04-02T07:10:52.572Z,100.00
2023-04-02T07:20:55.547Z,100.00
2023-04-02T07:31:01.550Z,100.00
2023-04-02T07:41:07.264Z,100.00
2023-04-02T07:51:30.427Z,100.00
2023-04-02T08:01:35.776Z,100.00
2023-04-02T08:11:47.923Z,100.00
2023-04-02T08:21:53.002Z,100.00
2023-04-02T08:31:55.167Z,100.00
2023-04-02T08:42:03.932Z,100.00
2023-04-02T08:52:23.729Z,100.00
2023-04-02T09:02:43.757Z,100.00
2023-04-02T09:12:51.842Z,100.00
2023-04-02T09:22:57.220Z,100.00
2023-04-02T09:33:07.896Z,100.00
2023-04-02T09:43:16.443Z,100.00
2023-04-02T09:53:39.063Z,100.00
2023-04-02T10:03:43.131Z,100.00
2023-04-02T10:14:04.076Z,100.00
2023-04-02T10:24:20.265Z,100.00
2023-04-02T10:34:36.483Z,100.00
2023-04-02T10:44:56.929Z,100.00
2023-04-02T10:55:05.469Z,100.00
2023-04-02T11:05:18.457Z,100.00
2023-04-02T11:15:30.427Z,100.00
2023-04-02T11:25:36.507Z,100.00
2023-04-02T11:35:41.423Z,100.00
2023-04-02T11:45:53.723Z,100.00
2023-04-02T11:56:16.976Z,100.00
2023-04-02T12:07:00.217Z,100.00
2023-04-02T12:17:16.698Z,100.00
2023-04-02T12:27:24.707Z,100.00
2023-04-02T12:37:29.972Z,100.00
2023-04-02T12:47:34.410Z,100.00
2023-04-02T12:57:41.813Z,100.00
2023-04-02T13:07:47.747Z,100.00
2023-04-02T13:18:21.651Z,100.00
2023-04-02T13:28:26.232Z,100.00
2023-04-02T13:38:35.280Z,100.00
2023-04-02T13:48:40.960Z,100.00
2023-04-02T13:58:48.835Z,100.00
2023-04-02T14:09:25.857Z,100.00
2023-04-02T14:19:59.381Z,100.00
2023-04-02T14:30:13.541Z,100.00
2023-04-02T14:40:43.046Z,100.00
2023-04-02T14:50:49.247Z,100.00
2023-04-02T15:00:57.523Z,100.00
2023-04-02T15:11:21.861Z,100.00
2023-04-02T15:21:55.912Z,100.00
2023-04-02T15:32:25.261Z,100.00
2023-04-02T15:42:38.452Z,100.00
2023-04-02T15:52:52.455Z,100.00
2023-04-02T16:03:06.772Z,100.00
2023-04-02T16:13:35.533Z,100.00
2023-04-02T16:23:43.075Z,100.00
2023-04-02T16:34:00.933Z,100.00
2023-04-02T16:44:29.864Z,100.00
2023-04-02T16:54:49.206Z,100.00
2023-04-02T17:05:14.683Z,100.00
2023-04-02T17:15:29.233Z,100.00
2023-04-02T17:25:34.820Z,100.00
2023-04-02T17:35:54.674Z,100.00
2023-04-02T17:46:02.744Z,100.00
2023-04-02T17:56:30.129Z,100.00
2023-04-02T18:06:41.691Z,100.00
2023-04-02T18:16:49.516Z,100.00
2023-04-02T18:27:28.456Z,100.00
2023-04-02T18:37:45.780Z,100.00
2023-04-02T18:47:59.686Z,100.00
2023-04-02T18:58:07.414Z,100.00
2023-04-02T19:08:37.500Z,100.00
2023-04-02T19:19:10.260Z,100.00
2023-04-02T19:29:37.276Z,100.00
2023-04-02T19:40:11.908Z,100.00
2023-04-02T19:50:14.138Z,100.00
2023-04-02T20:00:19.032Z,100.00
2023-04-02T20:10:24.273Z,100.00
2023-04-02T20:20:32.554Z,100.00
2023-04-02T20:30:35.856Z,100.00
2023-04-02T20:40:41.961Z,100.00
2023-04-02T20:50:49.512Z,100.00
2023-04-02T21:01:12.171Z,100.00
2023-04-02T21:11:18.376Z,100.00
2023-04-02T21:21:25.836Z,100.00
2023-04-02T21:31:35.939Z,100.00
2023-04-02T21:41:50.315Z,100.00
2023-04-02T21:51:56.156Z,92.15
2023-04-02T22:01:59.165Z,87.28
2023-04-02T22:12:02.530Z,81.25
2023-04-02T22:22:06.766Z,81.74
2023-04-02T22:32:08.926Z,81.29
2023-04-02T22:42:13.564Z,79.33
2023-04-02T22:52:16.877Z,77.70
2023-04-02T23:02:19.472Z,76.37
2023-04-02T23:12:21.845Z,75.08
2023-04-02T23:22:26.140Z,71.74
2023-04-02T23:32:33.733Z,72.59
2023-04-02T23:42:35.901Z,71.89
2023-04-02T23:52:42.605Z,70.79
